Time;durP1;ratioP1;P1;durP2;ratioP2;P2;SDS_P1;SDS_P2;PMS_P1;PMS_P2;Temp;Humidity;BMP_temperature;BMP_pressure;BME280_temperature;BME280_humidity;BME280_pressure;Samples;Min_cycle;Max_cycle;Signal;HPM_P1;HPM_P2
2022/09/14 03:01:27;;;;;;;13.35;5.50;;;;;;;11.35;85.58;100468.16;5008426;23;20068;-44
2022/09/14 03:03:54;;;;;;;12.23;3.83;;;;;;;11.34;85.86;100472.06;5008425;28;20050;-43
2022/09/14 03:06:21;;;;;;;10.57;3.47;;;;;;;11.33;86.14;100466.91;5021284;28;20426;-44
2022/09/14 03:08:48;;;;;;;10.88;3.85;;;;;;;11.35;86.03;100459.03;5011961;28;20553;-45
2022/09/14 03:11:15;;;;;;;9.68;3.63;;;;;;;11.32;85.84;100468.84;5029677;28;20497;-43
2022/09/14 03:13:42;;;;;;;12.10;5.15;;;;;;;11.27;86.10;100466.34;5019951;28;20056;-44
2022/09/14 03:16:16;;;;;;;7.57;3.88;;;;;;;11.29;86.22;100458.47;4997028;28;20105;-46
2022/09/14 03:18:43;;;;;;;6.35;4.22;;;;;;;11.29;86.17;100460.44;5026947;28;20049;-44
2022/09/14 03:21:12;;;;;;;13.73;3.72;;;;;;;11.26;86.23;100463.91;5018664;28;20450;-45
2022/09/14 03:23:43;;;;;;;9.93;3.97;;;;;;;11.21;85.94;100462.22;4995058;28;20042;-44
2022/09/14 03:26:16;;;;;;;9.50;3.65;;;;;;;11.20;86.25;100457.84;5008780;28;20049;-44
2022/09/14 03:28:43;;;;;;;10.82;3.20;;;;;;;11.19;86.09;100459.00;5018154;28;20139;-48
2022/09/14 03:31:12;;;;;;;9.95;3.42;;;;;;;11.20;86.42;100454.28;5023946;28;20042;-46
2022/09/14 03:33:39;;;;;;;13.52;3.60;;;;;;;11.22;86.52;100447.22;5008794;28;20050;-44
2022/09/14 03:36:17;;;;;;;9.10;3.53;;;;;;;11.29;86.63;100447.38;5008833;28;20054;-44
2022/09/14 03:38:46;;;;;;;10.75;4.28;;;;;;;11.35;86.58;100461.78;5010139;28;20050;-45
2022/09/14 03:41:14;;;;;;;11.80;3.70;;;;;;;11.39;86.71;100460.72;5011772;28;20183;-45
2022/09/14 03:43:42;;;;;;;11.27;4.20;;;;;;;11.45;86.71;100448.19;5008828;28;20049;-42
2022/09/14 03:46:11;;;;;;;8.48;3.25;;;;;;;11.53;86.84;100458.31;5022143;28;20056;-43
2022/09/14 03:48:39;;;;;;;9.57;3.42;;;;;;;11.58;86.85;100451.66;5009086;28;20094;-44
2022/09/14 03:51:08;;;;;;;8.00;3.42;;;;;;;11.64;86.81;100458.56;5016046;28;20076;-44
2022/09/14 03:53:35;;;;;;;12.10;2.90;;;;;;;11.65;86.63;100453.84;5021796;28;20050;-42
2022/09/14 03:56:10;;;;;;;8.98;3.13;;;;;;;11.65;86.62;100448.28;5010400;28;20050;-43
2022/09/14 03:58:37;;;;;;;9.05;3.60;;;;;;;11.68;86.54;100461.41;5008834;28;20050;-45
2022/09/14 04:01:06;;;;;;;10.55;3.55;;;;;;;11.72;86.52;100456.78;5011610;28;20069;-46
2022/09/14 04:03:33;;;;;;;7.68;3.00;;;;;;;11.75;86.60;100458.84;5024510;28;20050;-43
2022/09/14 04:06:04;;;;;;;12.02;3.58;;;;;;;11.78;86.69;100449.81;5021547;28;20048;-43
2022/09/14 04:08:36;;;;;;;8.55;3.42;;;;;;;11.83;86.82;100442.03;5028303;28;20550;-44
2022/09/14 04:11:18;;;;;;;7.20;3.58;;;;;;;11.85;86.74;100441.66;5014495;28;20038;-43
2022/09/14 04:13:47;;;;;;;7.70;3.70;;;;;;;11.90;86.73;100449.69;5015156;28;20046;-42
2022/09/14 04:16:14;;;;;;;8.30;4.53;;;;;;;11.94;86.72;100443.06;5018330;28;20041;-43
2022/09/14 04:18:41;;;;;;;10.85;3.40;;;;;;;11.93;86.69;100444.22;5030454;28;20096;-44
2022/09/14 04:21:14;;;;;;;6.50;3.13;;;;;;;11.95;86.74;100444.66;5022212;28;20566;-42
2022/09/14 04:23:43;;;;;;;14.00;5.88;;;;;;;11.98;86.75;100445.91;5011665;28;20065;-44
2022/09/14 04:26:31;;;;;;;11.30;4.05;;;;;;;11.99;86.74;100453.09;5018620;28;20096;-43
2022/09/14 04:28:58;;;;;;;12.35;4.47;;;;;;;12.01;86.99;100447.97;5025363;28;20052;-45
2022/09/14 04:31:25;;;;;;;8.15;3.42;;;;;;;12.03;86.79;100442.84;5016908;28;20049;-43
2022/09/14 04:33:55;;;;;;;13.20;3.92;;;;;;;12.04;86.91;100430.59;5002598;28;20042;-43
2022/09/14 04:36:29;;;;;;;7.68;3.58;;;;;;;12.01;86.97;100432.13;5015113;28;20385;-42
2022/09/14 04:38:58;;;;;;;11.55;3.75;;;;;;;12.04;87.02;100434.19;5014292;28;20257;-44
2022/09/14 04:41:26;;;;;;;7.10;3.20;;;;;;;12.06;87.11;100431.03;5012587;28;20088;-43
2022/09/14 04:43:54;;;;;;;7.82;3.85;;;;;;;12.05;86.98;100423.88;5011680;28;20158;-44
2022/09/14 04:46:29;;;;;;;7.07;3.15;;;;;;;12.01;86.92;100423.00;5011245;28;20041;-42
2022/09/14 04:48:56;;;;;;;7.75;2.95;;;;;;;11.99;87.25;100425.34;5011296;28;20496;-47
2022/09/14 04:51:26;;;;;;;5.28;2.83;;;;;;;12.02;87.25;100419.84;5020149;28;20128;-43
2022/09/14 04:53:55;;;;;;;8.25;3.03;;;;;;;12.05;87.26;100421.09;5014953;28;20050;-43
2022/09/14 04:56:23;;;;;;;9.65;3.40;;;;;;;12.05;87.30;100418.31;5011316;28;20373;-42
2022/09/14 04:58:57;;;;;;;7.43;3.15;;;;;;;12.06;87.24;100420.75;5011334;28;20603;-44
2022/09/14 05:01:27;;;;;;;7.18;3.50;;;;;;;12.06;87.49;100423.53;5015127;28;20499;-43
2022/09/14 05:03:54;;;;;;;8.23;3.50;;;;;;;12.06;87.44;100419.94;5011204;28;20121;-44
2022/09/14 05:06:24;;;;;;;8.52;2.97;;;;;;;12.06;87.68;100420.75;5021696;28;20037;-42
2022/09/14 05:08:52;;;;;;;8.57;3.60;;;;;;;12.08;87.90;100417.59;5011242;28;20389;-42
2022/09/14 05:11:24;;;;;;;5.97;2.88;;;;;;;12.06;87.85;100412.44;5005994;28;20518;-43
2022/09/14 05:13:51;;;;;;;;;;;;;;;12.04;87.79;100416.72;5014534;28;20046;-42
2022/09/14 05:16:20;;;;;;;5.38;3.53;;;;;;;12.05;87.91;100412.78;5010202;28;19926;-42
2022/09/14 05:18:48;;;;;;;8.15;3.53;;;;;;;12.07;87.88;100410.47;5015058;28;20116;-43
2022/09/14 05:21:17;;;;;;;8.77;3.85;;;;;;;12.08;88.08;100423.16;5011190;28;20454;-52
2022/09/14 05:23:45;;;;;;;8.32;3.20;;;;;;;12.08;88.14;100421.19;5010605;28;20041;-43
2022/09/14 05:26:13;;;;;;;10.38;2.90;;;;;;;12.09;88.39;100430.31;5014833;28;21108;-48
2022/09/14 05:28:40;;;;;;;6.68;3.33;;;;;;;12.09;88.58;100431.13;5011966;28;20041;-43
2022/09/14 05:31:08;;;;;;;7.88;3.10;;;;;;;12.10;88.47;100429.13;5024706;28;20042;-44
2022/09/14 05:33:35;;;;;;;8.15;3.10;;;;;;;12.08;88.38;100432.28;5016644;28;20128;-44
2022/09/14 05:36:04;;;;;;;8.20;3.10;;;;;;;12.05;88.38;100423.88;5016829;28;20030;-43
2022/09/14 05:38:33;;;;;;;5.97;2.80;;;;;;;12.04;88.57;100427.84;5028892;28;20119;-43
2022/09/14 05:41:01;;;;;;;7.45;3.42;;;;;;;12.05;88.71;100412.78;5015111;28;20042;-45
2022/09/14 05:43:29;;;;;;;6.15;3.33;;;;;;;12.06;88.83;100415.19;5011201;28;20058;-43
2022/09/14 05:46:01;;;;;;;8.73;4.43;;;;;;;12.10;88.96;100415.25;5023122;28;20046;-51
2022/09/14 05:48:35;;;;;;;6.15;3.08;;;;;;;12.12;88.92;100424.84;5016941;28;20034;-48
2022/09/14 05:51:09;;;;;;;7.95;3.50;;;;;;;12.13;88.79;100431.19;5018891;28;20388;-43
2022/09/14 05:53:35;;;;;;;8.60;3.20;;;;;;;12.14;89.16;100428.06;5009037;28;20715;-43
2022/09/14 05:56:08;;;;;;;8.10;2.83;;;;;;;12.15;89.02;100434.44;5011464;28;20053;-44
2022/09/14 05:58:36;;;;;;;6.35;3.00;;;;;;;12.17;89.18;100437.63;5015827;28;20049;-43
2022/09/14 06:01:06;;;;;;;9.13;3.00;;;;;;;12.19;89.21;100441.66;5015840;28;20042;-49
2022/09/14 06:03:33;;;;;;;4.63;3.03;;;;;;;12.19;89.21;100441.66;5011536;28;20049;-44
2022/09/14 06:06:00;;;;;;;4.45;3.00;;;;;;;12.19;89.31;100441.66;5014725;28;20045;-44
2022/09/14 06:08:27;;;;;;;4.32;2.53;;;;;;;12.20;89.31;100442.47;5011167;28;20116;-47
2022/09/14 06:10:54;;;;;;;6.20;2.88;;;;;;;12.19;89.30;100429.75;4992583;28;20041;-43
2022/09/14 06:13:22;;;;;;;3.47;1.92;;;;;;;12.15;89.25;100440.75;5012959;28;20052;-43
2022/09/14 06:15:49;;;;;;;6.20;2.17;;;;;;;12.15;89.43;100443.53;5023126;28;20047;-43
2022/09/14 06:18:15;;;;;;;4.53;2.40;;;;;;;12.19;89.43;100449.16;5017645;28;20466;-47
2022/09/14 06:20:50;;;;;;;4.60;2.38;;;;;;;12.20;89.50;100459.91;4996334;28;20037;-47
2022/09/14 06:23:17;;;;;;;6.03;3.50;;;;;;;12.22;89.52;100456.78;5016399;28;20046;-43
2022/09/14 06:25:44;;;;;;;8.60;3.00;;;;;;;12.23;89.68;100457.59;5009351;28;20034;-42
2022/09/14 06:28:11;;;;;;;4.15;2.75;;;;;;;12.21;89.61;100449.59;5023429;28;20045;-43
2022/09/14 06:30:42;;;;;;;6.88;3.85;;;;;;;12.21;89.61;100455.16;5025775;28;20054;-43
2022/09/14 06:33:09;;;;;;;4.30;3.30;;;;;;;12.20;89.61;100457.13;5023053;28;20562;-42
2022/09/14 06:35:36;;;;;;;6.70;3.45;;;;;;;12.19;89.63;100463.03;5016516;28;20091;-42
2022/09/14 06:38:02;;;;;;;6.88;3.08;;;;;;;12.16;89.87;100464.56;5023353;28;20079;-43
2022/09/14 06:40:29;;;;;;;5.38;3.38;;;;;;;12.17;89.71;100460.66;5009430;28;20058;-43
2022/09/14 06:43:00;;;;;;;6.65;3.35;;;;;;;12.17;89.84;100468.16;5010219;28;20128;-42
2022/09/14 06:45:35;;;;;;;7.60;3.83;;;;;;;12.17;89.71;100457.06;5027367;28;20127;-44
2022/09/14 06:48:02;;;;;;;8.45;3.80;;;;;;;12.19;89.95;100469.41;5012489;28;20450;-41
2022/09/14 06:50:28;;;;;;;8.32;3.75;;;;;;;12.21;89.86;100466.25;5016994;28;20096;-43
2022/09/14 06:52:55;;;;;;;5.55;3.13;;;;;;;12.22;89.89;100462.31;5032242;28;20063;-48
2022/09/14 06:55:21;;;;;;;5.85;3.38;;;;;;;12.25;89.93;100467.16;5009257;28;20045;-43
2022/09/14 06:57:48;;;;;;;6.55;4.55;;;;;;;12.29;90.02;100476.34;5009149;28;20368;-43
2022/09/14 07:00:15;;;;;;;8.02;4.07;;;;;;;12.31;89.75;100471.22;5009712;28;20048;-43
2022/09/14 07:02:42;;;;;;;4.53;3.20;;;;;;;12.31;89.81;100465.69;5013696;28;20797;-42
2022/09/14 07:05:09;;;;;;;6.18;3.13;;;;;;;12.28;89.74;100463.66;5011773;28;20398;-43
2022/09/14 07:07:36;;;;;;;4.97;3.08;;;;;;;12.25;89.79;100469.94;5011214;28;20056;-44
2022/09/14 07:10:03;;;;;;;33.10;6.30;;;;;;;12.27;89.73;100467.59;5024534;28;20053;-44
2022/09/14 07:12:29;;;;;;;6.32;3.33;;;;;;;12.28;89.89;100466.44;5008974;28;20046;-45
2022/09/14 07:14:56;;;;;;;5.32;3.47;;;;;;;12.31;89.92;100478.78;5025418;28;20048;-43
2022/09/14 07:17:23;;;;;;;2.83;2.53;;;;;;;12.34;89.88;100486.38;5010817;28;20050;-43
2022/09/14 07:19:50;;;;;;;4.20;2.30;;;;;;;12.39;90.03;100481.31;5019755;28;20081;-48
2022/09/14 07:22:17;;;;;;;3.17;1.98;;;;;;;12.41;89.87;100475.41;5009423;28;20376;-43
2022/09/14 07:24:43;;;;;;;2.58;1.60;;;;;;;12.44;89.84;100478.28;5008913;28;20042;-43
2022/09/14 07:27:10;;;;;;;6.18;2.05;;;;;;;12.51;90.01;100480.41;5020513;28;20091;-46
2022/09/14 07:29:37;;;;;;;3.22;1.90;;;;;;;12.56;89.93;100478.13;5017068;28;20357;-46
2022/09/14 07:32:04;;;;;;;3.78;1.92;;;;;;;12.61;90.00;100483.41;5020468;28;20037;-45
2022/09/14 07:34:31;;;;;;;4.40;1.13;;;;;;;12.66;89.83;100488.66;5018579;28;20157;-45
2022/09/14 07:36:58;;;;;;;4.50;1.48;;;;;;;12.67;89.66;100487.50;5007298;28;20076;-42
2022/09/14 07:39:25;;;;;;;3.47;1.33;;;;;;;12.66;89.69;100485.88;5022299;28;20057;-44
2022/09/14 07:41:52;;;;;;;1.52;1.10;;;;;;;12.66;89.65;100483.09;5014663;28;20061;-47
2022/09/14 07:44:18;;;;;;;2.33;1.15;;;;;;;12.65;89.59;100484.28;5015769;28;20499;-45
2022/09/14 07:46:46;;;;;;;1.83;1.02;;;;;;;12.65;89.41;100486.25;5004937;28;20053;-48
2022/09/14 07:49:14;;;;;;;1.52;0.80;;;;;;;12.67;89.51;100484.72;5012251;28;20046;-43
2022/09/14 07:51:41;;;;;;;1.27;0.77;;;;;;;12.69;89.62;100485.16;5019033;28;20403;-42
2022/09/14 07:54:11;;;;;;;2.55;0.90;;;;;;;12.70;89.64;100480.41;5025203;28;20096;-44
2022/09/14 07:56:38;;;;;;;0.70;0.70;;;;;;;12.71;89.68;100482.81;5012315;28;20050;-45
2022/09/14 07:59:05;;;;;;;0.77;0.73;;;;;;;12.77;89.88;100489.69;5013722;28;20107;-47
2022/09/14 08:01:52;;;;;;;1.38;1.00;;;;;;;12.82;89.86;100496.91;5017976;28;20060;-44
2022/09/14 08:04:19;;;;;;;1.05;0.80;;;;;;;12.86;89.70;100491.44;5013351;28;20594;-44
2022/09/14 08:06:46;;;;;;;1.70;0.88;;;;;;;12.86;89.92;100500.59;5023077;28;20049;-44
2022/09/14 08:09:13;;;;;;;1.70;0.93;;;;;;;12.86;89.79;100502.56;5025699;28;20034;-42
2022/09/14 08:11:39;;;;;;;1.20;0.90;;;;;;;12.90;89.84;100504.22;5011865;28;20046;-44
2022/09/14 08:14:09;;;;;;;1.30;1.10;;;;;;;12.95;90.28;100490.03;5018827;28;20042;-43
2022/09/14 08:16:39;;;;;;;1.35;1.23;;;;;;;12.97;90.12;100493.25;5021003;28;20049;-43
2022/09/14 08:19:11;;;;;;;1.20;1.10;;;;;;;12.99;90.04;100495.66;5018952;28;20041;-43
2022/09/14 08:21:38;;;;;;;1.52;1.13;;;;;;;13.01;90.28;100488.56;5012256;28;20471;-46
2022/09/14 08:24:17;;;;;;;2.58;1.08;;;;;;;13.06;90.16;100496.59;5011926;28;20496;-42
2022/09/14 08:26:45;;;;;;;0.88;0.88;;;;;;;13.08;90.20;100499.06;5020993;28;20531;-46
2022/09/14 08:29:14;;;;;;;0.90;0.80;;;;;;;13.08;89.96;100499.06;5013604;28;20053;-43
2022/09/14 08:31:42;;;;;;;0.93;0.90;;;;;;;13.08;90.13;100490.72;5026115;28;20483;-43
2022/09/14 08:34:09;;;;;;;1.52;0.90;;;;;;;13.14;90.22;100480.88;5021040;28;20049;-44
2022/09/14 08:36:38;;;;;;;1.40;0.98;;;;;;;13.19;90.29;100488.94;5011522;28;20053;-51
2022/09/14 08:39:09;;;;;;;0.70;0.70;;;;;;;13.26;90.45;100489.84;5011623;28;20495;-44
2022/09/14 08:41:52;;;;;;;0.80;0.75;;;;;;;13.38;90.42;100488.88;5011671;28;20050;-45
2022/09/14 08:44:35;;;;;;;2.20;0.35;;;;;;;13.49;90.09;100481.53;5011341;28;20519;-45
2022/09/14 08:47:31;;;;;;;1.05;0.70;;;;;;;13.58;89.72;100479.28;5011509;28;20061;-44
2022/09/14 08:49:57;;;;;;;3.53;0.50;;;;;;;13.59;89.69;100486.47;5008443;28;20057;-50
2022/09/14 08:52:33;;;;;;;0.68;0.68;;;;;;;13.68;89.64;100481.47;5026608;28;20038;-45
2022/09/14 08:55:10;;;;;;;0.40;0.30;;;;;;;13.76;89.29;100485.97;5013072;28;20050;-46
2022/09/14 08:57:43;;;;;;;2.17;0.40;;;;;;;13.79;88.73;100488.00;5011890;28;20391;-44
2022/09/14 09:00:16;;;;;;;1.85;0.60;;;;;;;13.85;88.58;100478.16;5011318;28;20050;-46
2022/09/14 09:02:59;;;;;;;0.80;0.47;;;;;;;13.84;88.16;100484.13;5013901;28;21409;-46
2022/09/14 09:05:40;;;;;;;1.92;0.70;;;;;;;13.83;88.07;100474.94;5016161;28;20068;-45
2022/09/14 09:08:35;;;;;;;0.30;0.30;;;;;;;13.87;87.87;100486.16;5017537;28;20119;-51
2022/09/14 09:11:06;;;;;;;1.20;0.60;;;;;;;13.94;87.54;100489.03;5011160;28;20490;-46
2022/09/14 09:13:37;;;;;;;0.68;0.43;;;;;;;14.11;87.68;100484.94;5014490;28;20038;-48
2022/09/14 09:16:08;;;;;;;1.45;0.50;;;;;;;14.27;86.75;100485.56;4996167;28;20056;-44
2022/09/14 09:18:48;;;;;;;0.55;0.40;;;;;;;14.28;86.09;100484.38;5010932;28;20046;-43
2022/09/14 09:21:27;;;;;;;1.00;0.70;;;;;;;14.27;86.08;100486.34;5011006;28;20525;-50
2022/09/14 09:24:08;;;;;;;0.32;0.32;;;;;;;14.35;86.13;100487.31;5011585;28;20056;-45
2022/09/14 09:26:34;;;;;;;0.73;0.70;;;;;;;14.40;85.57;100478.63;5019144;28;20046;-44
2022/09/14 09:29:04;;;;;;;2.10;0.60;;;;;;;14.37;85.23;100477.38;5011198;28;20120;-43
2022/09/14 09:31:42;;;;;;;2.28;0.80;;;;;;;14.42;85.28;100490.97;5029303;28;20442;-45
2022/09/14 09:34:15;;;;;;;2.38;0.82;;;;;;;14.50;85.06;100487.09;5011405;28;20052;-45
2022/09/14 09:36:46;;;;;;;0.47;0.40;;;;;;;14.53;84.75;100486.31;5010541;28;20125;-41
2022/09/14 09:39:14;;;;;;;0.80;0.57;;;;;;;14.52;84.51;100481.16;5010768;28;20108;-44
2022/09/14 09:41:49;;;;;;;0.82;0.70;;;;;;;14.54;84.46;100482.38;5013337;28;20069;-44
2022/09/14 09:44:16;;;;;;;2.20;0.80;;;;;;;14.60;84.21;100480.88;5016859;28;20404;-48
2022/09/14 09:46:50;;;;;;;1.60;0.45;;;;;;;14.73;83.93;100483.41;5012726;28;20037;-43
2022/09/14 09:49:23;;;;;;;1.92;0.50;;;;;;;14.81;82.99;100488.69;5016816;28;20492;-43
2022/09/14 09:51:51;;;;;;;2.60;1.63;;;;;;;14.90;82.64;100483.63;5018220;28;20101;-48
2022/09/14 09:54:28;;;;;;;2.40;1.88;;;;;;;14.93;82.29;100487.66;5017697;28;20034;-47
2022/09/14 09:57:01;;;;;;;4.25;1.80;;;;;;;14.85;82.31;100492.31;5010244;28;20095;-44
2022/09/14 09:59:38;;;;;;;4.00;0.85;;;;;;;14.78;82.28;100495.00;5015412;28;20052;-46
2022/09/14 10:02:30;;;;;;;2.17;0.68;;;;;;;14.72;82.24;100487.38;5014727;28;20061;-46
2022/09/14 10:05:06;;;;;;;1.30;1.20;;;;;;;14.69;82.15;100485.34;5011431;28;20387;-44
2022/09/14 10:07:39;;;;;;;1.65;0.45;;;;;;;14.76;82.15;100489.03;5019598;28;20144;-45
2022/09/14 10:10:12;;;;;;;0.85;0.52;;;;;;;14.80;81.75;100486.28;5009929;28;20447;-45
2022/09/14 10:12:46;;;;;;;2.13;0.80;;;;;;;14.79;81.48;100496.63;5009658;28;20042;-48
2022/09/14 10:15:21;;;;;;;0.73;0.73;;;;;;;14.79;81.41;100488.28;5014087;28;20054;-45
2022/09/14 10:18:00;;;;;;;0.35;0.30;;;;;;;14.81;81.36;100490.66;5028056;28;20487;-46
2022/09/14 10:20:27;;;;;;;0.70;0.52;;;;;;;14.81;81.30;100491.47;5017595;28;20042;-48
2022/09/14 10:22:53;;;;;;;1.23;0.30;;;;;;;14.84;81.13;100498.28;5017751;28;20046;-44
2022/09/14 10:25:25;;;;;;;0.43;0.43;;;;;;;14.83;81.11;100494.69;5016811;28;20140;-46
2022/09/14 10:27:54;;;;;;;1.27;0.52;;;;;;;14.88;80.90;100507.50;5020737;28;20037;-48
2022/09/14 10:30:24;;;;;;;1.05;0.63;;;;;;;14.85;80.70;100503.44;5020240;28;20075;-48
2022/09/14 10:33:01;;;;;;;1.52;0.95;;;;;;;14.83;80.27;100502.22;5013506;28;20033;-43
2022/09/14 10:35:40;;;;;;;0.68;0.50;;;;;;;14.87;80.46;100501.13;5017279;28;20102;-48
2022/09/14 10:38:16;;;;;;;0.47;0.32;;;;;;;15.01;79.90;100503.28;5021110;28;20454;-44
2022/09/14 10:40:51;;;;;;;0.47;0.47;;;;;;;15.11;79.77;100514.53;5013278;28;20518;-45
2022/09/14 10:43:59;;;;;;;1.17;0.63;;;;;;;15.25;79.61;100511.88;5009530;28;20046;-45
2022/09/14 10:46:33;;;;;;;2.90;0.52;;;;;;;15.33;79.58;100511.97;5023237;28;20088;-46
2022/09/14 10:49:36;;;;;;;0.50;0.47;;;;;;;15.37;79.09;100510.81;5009321;28;20062;-44
2022/09/14 10:52:18;;;;;;;0.70;0.57;;;;;;;15.33;78.79;100506.41;4996577;28;20049;-47
2022/09/14 10:55:18;;;;;;;0.50;0.50;;;;;;;15.29;78.53;100506.34;5009226;28;20450;-45
2022/09/14 10:58:06;;;;;;;0.63;0.30;;;;;;;15.35;77.96;100509.59;5009342;28;20037;-44
2022/09/14 11:00:45;;;;;;;0.60;0.57;;;;;;;15.40;77.76;100512.84;5008931;28;20041;-44
2022/09/14 11:03:26;;;;;;;1.67;1.13;;;;;;;15.49;77.44;100513.34;5008989;28;20038;-46
2022/09/14 11:06:26;;;;;;;0.68;0.60;;;;;;;15.49;77.20;100515.38;5012938;28;20098;-51
2022/09/14 11:09:01;;;;;;;1.45;0.57;;;;;;;15.45;77.03;100514.47;5009935;28;20048;-44
2022/09/14 11:12:09;;;;;;;1.85;0.73;;;;;;;15.45;76.82;100517.28;5009113;28;20053;-49
2022/09/14 11:14:42;;;;;;;1.58;0.75;;;;;;;15.44;76.81;100518.44;4923845;29;20055;-44
2022/09/14 11:17:21;;;;;;;2.90;0.70;;;;;;;15.39;76.92;100522.41;4924649;29;20152;-49
2022/09/14 11:20:10;;;;;;;1.60;0.70;;;;;;;15.27;76.41;100520.66;4982706;28;20119;-45
2022/09/14 11:22:49;;;;;;;2.60;1.30;;;;;;;15.17;76.20;100514.97;5025020;28;20103;-46
2022/09/14 11:25:39;;;;;;;1.70;0.90;;;;;;;15.19;76.16;100523.78;5028911;28;20041;-46
2022/09/14 11:28:14;;;;;;;7.07;1.20;;;;;;;15.19;75.85;100516.22;5006040;28;20062;-45
2022/09/14 11:30:48;;;;;;;4.30;1.35;;;;;;;15.19;75.89;100516.22;5020028;28;20446;-45
2022/09/14 11:33:29;;;;;;;5.45;1.05;;;;;;;15.25;75.77;100514.69;5008623;28;20404;-45
2022/09/14 11:36:06;;;;;;;3.90;1.67;;;;;;;15.31;75.73;100519.91;5009975;28;20156;-50
2022/09/14 11:38:45;;;;;;;4.18;1.50;;;;;;;15.39;75.49;100516.00;5019311;28;20070;-43
2022/09/14 11:41:18;;;;;;;5.63;1.85;;;;;;;15.43;75.60;100522.44;5013495;28;20052;-44
2022/09/14 11:43:58;;;;;;;9.30;1.70;;;;;;;15.44;75.47;100519.25;5008948;28;20555;-47
2022/09/14 11:46:30;;;;;;;4.60;1.40;;;;;;;15.43;75.32;100522.44;5012297;28;20217;-46
2022/09/14 11:49:16;;;;;;;4.95;1.95;;;;;;;15.39;75.16;100521.59;5008760;28;20054;-43
2022/09/14 11:51:50;;;;;;;5.30;1.75;;;;;;;15.39;75.27;100524.38;5015412;28;20037;-44
2022/09/14 11:54:20;;;;;;;7.43;3.13;;;;;;;15.41;75.15;100538.78;5014509;28;20459;-43
2022/09/14 11:56:59;;;;;;;6.90;1.80;;;;;;;15.43;74.69;100539.19;5013113;28;20071;-43
2022/09/14 11:59:49;;;;;;;5.40;2.05;;;;;;;15.54;74.50;100529.75;5028303;28;20054;-44
2022/09/14 12:02:21;;;;;;;10.00;2.58;;;;;;;15.74;74.11;100528.34;5008576;28;20053;-45
2022/09/14 12:05:04;;;;;;;7.32;2.10;;;;;;;16.02;73.55;100532.59;5014934;28;20050;-44
2022/09/14 12:07:44;;;;;;;;;;;;;;;16.17;73.77;100535.09;5016659;28;20084;-44
2022/09/14 12:10:16;;;;;;;12.20;2.75;;;;;;;16.22;73.23;100531.94;5012918;28;19932;-46
2022/09/14 12:13:04;;;;;;;7.93;2.13;;;;;;;16.27;72.94;100539.94;5022735;28;20053;-45
2022/09/14 12:15:34;;;;;;;6.38;2.20;;;;;;;16.28;72.68;100535.94;5008038;28;20045;-49
2022/09/14 12:18:04;;;;;;;6.28;2.78;;;;;;;16.25;72.37;100542.34;5011571;28;20214;-44
2022/09/14 12:20:36;;;;;;;7.00;1.85;;;;;;;16.24;71.86;100539.91;5017568;28;20046;-46
2022/09/14 12:23:19;;;;;;;8.80;3.08;;;;;;;16.35;72.01;100536.00;5024227;28;20462;-46
2022/09/14 12:26:04;;;;;;;7.45;2.50;;;;;;;16.51;71.22;100541.31;5020705;28;20111;-46
2022/09/14 12:28:34;;;;;;;6.80;2.20;;;;;;;16.61;70.60;100536.97;5015430;28;20045;-44
2022/09/14 12:31:03;;;;;;;19.20;4.28;;;;;;;16.65;70.32;100540.63;5021162;28;20061;-41
2022/09/14 12:33:30;;;;;;;7.85;2.45;;;;;;;16.61;70.06;100542.56;5019083;28;20045;-45
2022/09/14 12:36:04;;;;;;;8.00;2.45;;;;;;;16.60;70.06;100536.19;5011794;28;20053;-44
2022/09/14 12:38:30;;;;;;;10.43;3.05;;;;;;;16.58;70.18;100534.97;5023251;28;20477;-44
2022/09/14 12:41:01;;;;;;;8.05;3.42;;;;;;;16.58;70.07;100546.16;5021285;28;20050;-48
2022/09/14 12:43:33;;;;;;;12.13;2.67;;;;;;;16.55;70.29;100550.53;5018499;28;20407;-45
2022/09/14 12:46:09;;;;;;;6.20;2.08;;;;;;;16.53;70.03;100546.53;5015925;28;20500;-43
2022/09/14 12:48:46;;;;;;;11.38;3.00;;;;;;;16.48;69.96;100549.66;5019106;28;20058;-44
2022/09/14 12:51:13;;;;;;;9.15;2.40;;;;;;;16.34;69.53;100551.16;5015737;28;20041;-45
2022/09/14 12:53:42;;;;;;;3.95;2.00;;;;;;;16.22;69.11;100537.53;5024433;28;20049;-47
2022/09/14 12:56:21;;;;;;;6.90;3.22;;;;;;;16.27;69.29;100539.94;5018506;28;20053;-46
2022/09/14 12:58:58;;;;;;;9.10;2.60;;;;;;;16.45;69.04;100543.66;5021552;28;20516;-48
2022/09/14 13:01:34;;;;;;;6.35;3.55;;;;;;;16.60;68.59;100535.41;5012624;28;20072;-44
2022/09/14 13:04:11;;;;;;;10.68;3.00;;;;;;;16.73;68.19;100534.66;4999161;28;20053;-48
2022/09/14 13:06:46;;;;;;;8.32;2.85;;;;;;;16.85;68.26;100541.91;5021323;28;20041;-46
2022/09/14 13:09:20;;;;;;;9.88;2.22;;;;;;;16.85;67.85;100539.09;5021448;28;20049;-48
2022/09/14 13:11:57;;;;;;;9.30;2.58;;;;;;;16.79;67.56;100533.09;5020577;28;20041;-47
2022/09/14 13:14:30;;;;;;;7.53;2.80;;;;;;;16.79;67.34;100540.66;5020619;28;20050;-49
2022/09/14 13:17:03;;;;;;;9.90;2.80;;;;;;;16.79;67.11;100543.47;5025048;28;20064;-45
2022/09/14 13:19:33;;;;;;;8.80;2.42;;;;;;;16.84;67.17;100543.09;5016539;28;20152;-46
2022/09/14 13:22:01;;;;;;;3.70;2.20;;;;;;;16.87;66.71;100539.50;5017506;28;20041;-45
2022/09/14 13:24:30;;;;;;;10.80;2.85;;;;;;;16.93;66.98;100532.34;5008527;28;20685;-50
2022/09/14 13:26:59;;;;;;;9.48;2.50;;;;;;;16.97;67.17;100533.97;5010793;28;20054;-47
2022/09/14 13:29:27;;;;;;;7.20;2.35;;;;;;;17.00;67.07;100537.97;5010089;28;20042;-45
2022/09/14 13:31:57;;;;;;;7.45;2.83;;;;;;;17.01;67.06;100550.78;5020939;28;20103;-43
2022/09/14 13:34:33;;;;;;;5.57;2.47;;;;;;;16.95;67.12;100555.13;5012996;28;20038;-43
2022/09/14 13:37:01;;;;;;;8.63;2.50;;;;;;;16.92;67.12;100550.31;5009368;28;20057;-45
2022/09/14 13:39:33;;;;;;;9.00;2.78;;;;;;;16.87;66.90;100551.50;4997935;28;20128;-46
2022/09/14 13:42:01;;;;;;;6.93;3.47;;;;;;;16.83;66.83;100544.31;5013848;28;20722;-44
2022/09/14 13:44:44;;;;;;;8.23;2.22;;;;;;;16.85;67.00;100547.50;4997268;28;20049;-45
2022/09/14 13:47:14;;;;;;;5.95;2.47;;;;;;;16.90;66.99;100538.72;5020823;28;20119;-45
2022/09/14 13:49:43;;;;;;;11.77;2.85;;;;;;;16.96;66.74;100548.34;5016460;28;20484;-45
2022/09/14 13:52:22;;;;;;;7.10;2.40;;;;;;;17.01;66.56;100554.38;5013147;28;20054;-44
2022/09/14 13:55:22;;;;;;;3.92;1.70;;;;;;;17.02;66.46;100532.81;5011316;28;20046;-43
2022/09/14 13:58:08;;;;;;;8.23;1.80;;;;;;;17.07;66.33;100537.22;5031245;28;20083;-50
2022/09/14 14:00:55;;;;;;;7.75;1.92;;;;;;;17.10;66.41;100533.63;5023837;28;20061;-43
2022/09/14 14:03:27;;;;;;;9.48;3.38;;;;;;;17.15;66.27;100530.44;5020419;28;20053;-43
2022/09/14 14:05:54;;;;;;;7.18;2.50;;;;;;;17.15;66.41;100539.66;5017566;28;20049;-47
2022/09/14 14:08:34;;;;;;;13.10;2.30;;;;;;;17.15;65.94;100538.84;5022047;28;20128;-42
2022/09/14 14:11:04;;;;;;;6.00;1.80;;;;;;;17.18;65.91;100538.84;5024980;28;20052;-44
2022/09/14 14:13:34;;;;;;;6.70;1.90;;;;;;;17.17;65.52;100545.63;5008802;28;20053;-49
2022/09/14 14:16:25;;;;;;;6.00;1.85;;;;;;;17.12;65.56;100551.63;5021006;28;20048;-46
2022/09/14 14:18:53;;;;;;;8.73;2.05;;;;;;;16.99;65.77;100550.38;5025732;28;20096;-43
2022/09/14 14:21:20;;;;;;;6.45;2.30;;;;;;;16.90;66.12;100549.91;5012460;28;20128;-43
2022/09/14 14:23:51;;;;;;;8.13;2.67;;;;;;;16.82;65.85;100537.91;5024301;28;20046;-42
2022/09/14 14:26:46;;;;;;;5.95;2.53;;;;;;;16.87;65.91;100531.13;5016894;28;20092;-46
2022/09/14 14:29:15;;;;;;;3.75;1.83;;;;;;;17.07;65.72;100532.41;5017597;28;20450;-42
2022/09/14 14:31:41;;;;;;;7.55;2.08;;;;;;;17.17;65.65;100528.84;5018057;28;20045;-48
2022/09/14 14:34:21;;;;;;;4.72;2.38;;;;;;;17.36;65.62;100522.13;5012405;28;20060;-43
2022/09/14 14:36:49;;;;;;;7.72;2.30;;;;;;;17.50;65.04;100522.94;5000869;28;20508;-43
2022/09/14 14:39:18;;;;;;;6.55;2.10;;;;;;;17.54;65.02;100526.56;5003749;28;20544;-43
2022/09/14 14:41:46;;;;;;;11.85;2.42;;;;;;;17.48;64.86;100519.72;5009381;28;20045;-42
2022/09/14 14:44:27;;;;;;;6.22;2.25;;;;;;;17.44;64.75;100518.94;5011978;28;20046;-45
2022/09/14 14:46:55;;;;;;;7.18;1.90;;;;;;;17.41;64.46;100516.94;5009865;28;20403;-41
2022/09/14 14:49:22;;;;;;;8.23;2.25;;;;;;;17.41;65.02;100519.72;5017823;28;20057;-45